Time;durP1;ratioP1;P1;durP2;ratioP2;P2;SDS_P1;SDS_P2;PMS_P1;PMS_P2;Temp;Humidity;BMP_temperature;BMP_pressure;BME280_temperature;BME280_humidity;BME280_pressure;Samples;Min_cycle;Max_cycle;Signal;HPM_P1;HPM_P2
2022/09/10 00:01:24;;;;;;;5.93;0.70;;;;;;;14.25;100.00;98517.72;4911464;28;20236;-52
2022/09/10 00:03:52;;;;;;;2.67;0.73;;;;;;;14.31;100.00;98506.50;4917340;28;20228;-51
2022/09/10 00:06:21;;;;;;;1.43;0.73;;;;;;;14.30;100.00;98513.56;4913852;28;20233;-51
2022/09/10 00:08:47;;;;;;;5.70;0.80;;;;;;;14.35;100.00;98535.84;4912815;28;20234;-52
2022/09/10 00:11:15;;;;;;;2.70;0.60;;;;;;;14.44;100.00;98571.56;4908365;28;20236;-51
2022/09/10 00:13:43;;;;;;;8.03;1.27;;;;;;;14.40;100.00;98607.84;4914319;28;20267;-53
2022/09/10 00:16:29;;;;;;;3.07;1.20;;;;;;;14.27;100.00;98605.81;4909877;28;20322;-52
2022/09/10 00:18:57;;;;;;;1.77;1.00;;;;;;;14.14;100.00;98616.06;4914406;28;20242;-51
2022/09/10 00:21:25;;;;;;;4.17;1.23;;;;;;;14.05;100.00;98601.38;4909953;28;20703;-54
2022/09/10 00:23:51;;;;;;;3.43;1.10;;;;;;;13.99;100.00;98595.00;4913922;28;20240;-50
2022/09/10 00:26:21;;;;;;;3.63;1.20;;;;;;;13.95;100.00;98586.66;4909764;28;20239;-51
2022/09/10 00:28:47;;;;;;;5.63;1.00;;;;;;;13.97;100.00;98586.50;4917208;28;20850;-51
2022/09/10 00:31:15;;;;;;;1.47;0.90;;;;;;;13.96;100.00;98585.66;4902516;28;20287;-50
2022/09/10 00:33:42;;;;;;;3.67;1.00;;;;;;;14.00;100.00;98573.84;4920191;28;20235;-52
2022/09/10 00:41:36;;;;;;;4.97;0.73;;;;;;;14.05;100.00;98564.63;5211727;23;20243;-53
2022/09/10 00:44:06;;;;;;;2.80;1.00;;;;;;;14.02;100.00;98566.59;4948209;28;20298;-53
2022/09/10 00:46:42;;;;;;;2.50;0.80;;;;;;;14.05;100.00;98554.13;4953425;28;20248;-55
2022/09/10 00:49:14;;;;;;;1.80;0.90;;;;;;;14.00;100.00;98554.66;4965460;28;20246;-55
2022/09/10 00:52:01;;;;;;;3.13;1.10;;;;;;;14.02;100.00;98550.06;4941205;28;20286;-55
2022/09/10 00:54:31;;;;;;;3.53;0.90;;;;;;;14.05;100.00;98538.38;4943987;28;20383;-54
2022/09/10 00:57:05;;;;;;;3.70;1.00;;;;;;;14.05;100.00;98533.97;4944090;28;20235;-53
2022/09/10 00:59:33;;;;;;;2.83;0.70;;;;;;;14.07;100.00;98531.97;4944926;28;20222;-55
2022/09/10 01:02:00;;;;;;;3.73;0.93;;;;;;;14.10;100.00;98538.66;4941016;28;20249;-55
2022/09/10 01:04:27;;;;;;;3.63;0.70;;;;;;;14.06;100.00;98534.75;4945251;28;20228;-55
2022/09/10 01:06:54;;;;;;;3.30;0.80;;;;;;;14.06;100.00;98532.13;4938539;28;20224;-55
2022/09/10 01:09:23;;;;;;;3.63;0.90;;;;;;;14.11;100.00;98535.88;4941737;28;20245;-54
2022/09/10 01:12:02;;;;;;;3.43;0.80;;;;;;;14.14;100.00;98542.56;4956653;28;20234;-55
2022/09/10 01:14:47;;;;;;;3.63;0.97;;;;;;;14.18;100.00;98546.47;4944971;28;20236;-53
2022/09/10 01:17:22;;;;;;;3.17;0.70;;;;;;;14.15;100.00;98545.03;4936631;28;20240;-55
2022/09/10 01:20:14;;;;;;;2.93;1.00;;;;;;;14.17;100.00;98535.19;4936926;28;20225;-56
2022/09/10 01:22:59;;;;;;;3.13;0.70;;;;;;;14.14;100.00;98527.66;4944308;28;20714;-54
2022/09/10 01:25:40;;;;;;;1.87;0.60;;;;;;;14.14;100.00;98530.28;4940797;28;20279;-55
2022/09/10 01:28:15;;;;;;;1.23;0.60;;;;;;;14.27;100.00;98528.88;4956791;28;20250;-52
2022/09/10 01:30:50;;;;;;;1.20;0.50;;;;;;;14.22;100.00;98532.00;4943077;28;20246;-55
2022/09/10 01:33:22;;;;;;;2.00;0.70;;;;;;;14.19;100.00;98527.13;4939400;28;20223;-52
2022/09/10 01:35:53;;;;;;;2.70;0.70;;;;;;;14.16;100.00;98530.09;4942264;28;20602;-55
2022/09/10 01:38:24;;;;;;;2.87;0.60;;;;;;;14.16;100.00;98528.28;4941864;28;20284;-55
2022/09/10 01:40:54;;;;;;;0.70;0.37;;;;;;;14.19;100.00;98523.69;4941270;28;20639;-55
2022/09/10 01:43:25;;;;;;;1.93;0.50;;;;;;;14.19;100.00;98523.69;4941143;28;20244;-52
2022/09/10 01:46:13;;;;;;;2.30;0.30;;;;;;;14.12;100.00;98513.88;4952833;28;20226;-55
2022/09/10 01:49:01;;;;;;;0.93;0.40;;;;;;;14.15;100.00;98517.97;4944918;28;20228;-55
2022/09/10 01:51:37;;;;;;;1.13;0.30;;;;;;;14.19;98.93;98519.25;4939350;28;20249;-53
2022/09/10 01:54:28;;;;;;;4.73;0.37;;;;;;;14.25;98.92;98515.91;4941475;28;20230;-56
2022/09/10 01:57:09;;;;;;;1.77;0.47;;;;;;;14.28;99.15;98512.13;4941063;28;21124;-55
2022/09/10 01:59:46;;;;;;;3.43;0.20;;;;;;;14.25;99.64;98509.84;4942702;28;20329;-54
2022/09/10 02:02:20;;;;;;;0.47;0.20;;;;;;;14.27;99.35;98521.00;4940431;28;20234;-55
2022/09/10 02:04:49;;;;;;;4.50;0.40;;;;;;;14.26;100.00;98512.28;4943505;28;20230;-55
2022/09/10 02:07:21;;;;;;;1.87;0.40;;;;;;;14.29;100.00;98513.75;4943088;28;20224;-55
2022/09/10 02:09:50;;;;;;;1.33;0.40;;;;;;;14.24;100.00;98521.34;4940791;28;20267;-53
2022/09/10 02:12:18;;;;;;;3.70;0.43;;;;;;;14.22;100.00;98518.09;4936778;28;20230;-55
2022/09/10 02:15:10;;;;;;;1.30;0.33;;;;;;;14.16;100.00;98509.09;4938160;28;20234;-52
2022/09/10 02:17:49;;;;;;;2.90;0.40;;;;;;;14.17;99.93;98502.84;4937856;28;20231;-55
2022/09/10 02:20:18;;;;;;;1.00;0.30;;;;;;;14.14;100.00;98509.28;4943674;28;20242;-52
2022/09/10 02:22:49;;;;;;;1.80;0.40;;;;;;;14.11;100.00;98516.69;4940627;28;20220;-53
2022/09/10 02:25:18;;;;;;;3.37;0.50;;;;;;;14.09;100.00;98516.03;4955669;28;20314;-52
2022/09/10 02:27:45;;;;;;;0.87;0.40;;;;;;;14.14;100.00;98513.69;4943214;28;20235;-53
2022/09/10 02:30:14;;;;;;;2.13;0.43;;;;;;;14.20;98.93;98517.44;4942130;28;20322;-55
2022/09/10 02:32:41;;;;;;;0.30;0.30;;;;;;;14.31;96.82;98514.38;4953227;28;20220;-54
2022/09/10 02:35:08;;;;;;;2.87;0.70;;;;;;;14.39;96.39;98521.38;4941655;28;20243;-54
2022/09/10 02:37:36;;;;;;;1.90;0.57;;;;;;;14.42;95.55;98513.13;4944759;28;20231;-53
2022/09/10 02:40:04;;;;;;;2.27;0.60;;;;;;;14.45;96.40;98507.53;4938164;28;20234;-55
2022/09/10 02:42:32;;;;;;;0.83;0.40;;;;;;;14.42;97.03;98513.94;4941900;28;20232;-54
2022/09/10 02:45:00;;;;;;;1.63;0.40;;;;;;;14.39;98.67;98516.13;4941250;28;20235;-53
2022/09/10 02:47:28;;;;;;;1.45;0.40;;;;;;;14.36;96.67;98513.84;4936740;28;20444;-53
2022/09/10 02:49:55;;;;;;;2.10;0.50;;;;;;;14.37;95.79;98518.09;4936268;28;20324;-53
2022/09/10 02:52:22;;;;;;;1.13;0.40;;;;;;;14.35;96.27;98513.03;4933722;28;20249;-53
2022/09/10 02:54:51;;;;;;;2.03;0.50;;;;;;;14.32;96.23;98508.13;4938877;28;20273;-53
2022/09/10 02:57:18;;;;;;;1.60;0.30;;;;;;;14.35;97.75;98515.66;4941944;28;20244;-53
2022/09/10 02:59:44;;;;;;;2.17;0.37;;;;;;;14.29;99.10;98500.63;4941434;28;20239;-56
2022/09/10 03:04:54;;;;;;;2.40;0.60;;;;;;;14.35;97.11;98507.78;5227616;23;20633;-54
2022/09/10 03:07:21;;;;;;;1.40;0.50;;;;;;;14.36;95.98;98492.84;4936030;28;20233;-55
2022/09/10 03:09:48;;;;;;;1.67;0.80;;;;;;;14.37;96.38;98500.53;4937326;28;20293;-55
2022/09/10 03:12:15;;;;;;;1.47;0.50;;;;;;;14.36;98.00;98498.91;4922732;28;20728;-55
2022/09/10 03:14:42;;;;;;;1.73;0.40;;;;;;;14.31;96.14;98496.81;4938397;28;20239;-55
2022/09/10 03:17:09;;;;;;;2.70;0.70;;;;;;;14.34;97.19;98497.47;4917030;28;20711;-55
2022/09/10 03:19:35;;;;;;;0.47;0.40;;;;;;;14.38;94.90;98501.38;4936826;28;20581;-55
2022/09/10 03:22:04;;;;;;;1.37;0.50;;;;;;;14.45;95.50;98500.44;4919695;28;20244;-55
2022/09/10 03:24:32;;;;;;;3.13;0.60;;;;;;;14.55;93.64;98502.00;4931803;28;20317;-55
2022/09/10 03:27:00;;;;;;;1.80;0.60;;;;;;;14.52;94.74;98505.00;4921104;28;20235;-54
2022/09/10 03:29:28;;;;;;;1.50;0.40;;;;;;;14.50;95.04;98509.59;4920377;28;20234;-53
2022/09/10 03:31:55;;;;;;;2.77;0.40;;;;;;;14.52;93.91;98503.19;4916126;28;20286;-54
2022/09/10 03:34:23;;;;;;;1.43;0.50;;;;;;;14.55;93.57;98502.84;4921274;28;20311;-53
2022/09/10 03:36:50;;;;;;;0.80;0.30;;;;;;;14.56;93.55;98504.47;4929587;28;20231;-55
2022/09/10 03:39:18;;;;;;;1.73;0.50;;;;;;;14.56;92.93;98509.72;4918112;28;21069;-55
2022/09/10 03:41:45;;;;;;;1.67;0.40;;;;;;;14.58;92.72;98507.72;4917461;28;20235;-55
2022/09/10 03:44:14;;;;;;;2.63;0.80;;;;;;;14.58;93.03;98505.09;4916643;28;20313;-54
2022/09/10 03:46:41;;;;;;;2.60;0.40;;;;;;;14.58;93.59;98502.47;4918506;28;20231;-55
2022/09/10 03:49:08;;;;;;;1.53;0.53;;;;;;;14.57;91.91;98495.59;4928186;28;20693;-55
2022/09/10 03:51:35;;;;;;;1.80;0.43;;;;;;;14.59;91.18;98504.13;4933735;28;20678;-56
2022/09/10 03:54:03;;;;;;;1.87;0.50;;;;;;;14.61;91.83;98501.28;4916277;28;20227;-55
2022/09/10 03:56:33;;;;;;;0.70;0.40;;;;;;;14.58;94.06;98505.09;4920812;28;20323;-54
2022/09/10 03:59:00;;;;;;;0.70;0.37;;;;;;;14.57;93.31;98503.47;4917381;28;20734;-55
2022/09/10 04:01:28;;;;;;;2.23;0.50;;;;;;;14.56;91.40;98499.22;4926692;28;20606;-55
2022/09/10 04:03:57;;;;;;;2.37;0.50;;;;;;;14.57;90.71;98497.38;4919976;28;20242;-54
2022/09/10 04:06:26;;;;;;;0.93;0.30;;;;;;;14.60;93.50;98500.50;4907599;28;20524;-54
2022/09/10 04:08:55;;;;;;;4.03;0.70;;;;;;;14.51;95.79;98501.56;4918208;28;20242;-56
2022/09/10 04:11:26;;;;;;;1.27;0.40;;;;;;;14.51;93.19;98496.31;4918779;28;20234;-54
2022/09/10 04:14:14;;;;;;;2.43;0.50;;;;;;;14.53;93.35;98496.94;4934113;28;20385;-55
2022/09/10 04:16:42;;;;;;;1.83;0.60;;;;;;;14.52;95.32;98516.34;4920066;28;20361;-54
2022/09/10 04:19:12;;;;;;;4.33;0.57;;;;;;;14.50;93.98;98515.69;4933100;28;20345;-55
2022/09/10 04:21:39;;;;;;;4.00;0.67;;;;;;;14.53;94.45;98515.34;4926156;28;20612;-56
2022/09/10 04:24:08;;;;;;;1.07;0.43;;;;;;;14.51;93.95;98511.25;4931394;28;20220;-55
2022/09/10 04:26:35;;;;;;;2.73;0.50;;;;;;;14.55;92.44;98515.13;4920212;28;20309;-55
2022/09/10 04:29:02;;;;;;;1.10;0.40;;;;;;;14.56;93.72;98519.41;4921856;28;20224;-54
2022/09/10 04:31:30;;;;;;;1.67;0.40;;;;;;;14.57;95.14;98511.34;4917950;28;20801;-54
2022/09/10 04:34:03;;;;;;;1.93;0.50;;;;;;;14.58;93.84;98513.00;4911341;28;20285;-54
2022/09/10 04:36:33;;;;;;;2.43;0.57;;;;;;;14.57;93.23;98505.28;4917642;28;20234;-52
2022/09/10 04:39:02;;;;;;;3.20;0.53;;;;;;;14.59;93.92;98513.78;4932298;28;20248;-55
2022/09/10 04:41:30;;;;;;;1.87;0.97;;;;;;;14.66;92.83;98524.41;4926437;28;20751;-55
2022/09/10 04:43:57;;;;;;;0.73;0.50;;;;;;;14.66;92.73;98519.97;4931398;28;20233;-56
2022/09/10 04:46:24;;;;;;;1.27;0.57;;;;;;;14.68;93.47;98525.84;4920245;28;20221;-53
2022/09/10 04:48:54;;;;;;;7.40;0.60;;;;;;;14.65;95.52;98525.41;4907529;28;20273;-53
2022/09/10 04:51:23;;;;;;;2.43;0.60;;;;;;;14.65;92.55;98533.28;4916836;28;20230;-55
2022/09/10 04:53:53;;;;;;;5.00;0.70;;;;;;;14.67;93.73;98534.72;4915187;28;20244;-55
2022/09/10 04:56:25;;;;;;;8.93;3.60;;;;;;;14.66;94.58;98534.91;4912427;28;20235;-53
2022/09/10 04:58:51;;;;;;;27.23;10.63;;;;;;;14.74;92.24;98534.88;4927812;28;20862;-55
2022/09/10 05:01:19;;;;;;;1.90;0.60;;;;;;;14.76;90.56;98532.88;4921470;28;20618;-55
2022/09/10 05:03:49;;;;;;;6.30;4.20;;;;;;;14.78;90.26;98549.28;4912749;28;20251;-55
2022/09/10 05:06:35;;;;;;;3.27;0.60;;;;;;;14.82;90.28;98545.28;4932085;28;20380;-54
2022/09/10 05:09:05;;;;;;;1.47;0.60;;;;;;;14.78;90.77;98545.81;4917006;28;20286;-55
2022/09/10 05:11:33;;;;;;;6.53;2.10;;;;;;;14.71;90.52;98551.78;4920107;28;20240;-54
2022/09/10 05:13:59;;;;;;;8.93;5.70;;;;;;;14.75;90.16;98550.44;4928715;28;20240;-52
2022/09/10 05:16:29;;;;;;;6.87;4.30;;;;;;;14.71;91.33;98551.78;4932056;28;20228;-52
2022/09/10 05:18:58;;;;;;;0.60;0.50;;;;;;;14.79;89.43;98564.06;4935014;28;20796;-53
2022/09/10 05:21:26;;;;;;;6.03;3.87;;;;;;;14.85;90.62;98550.16;4920875;28;20235;-52
2022/09/10 05:23:55;;;;;;;3.00;1.10;;;;;;;14.74;90.38;98554.06;4933912;28;20239;-54
2022/09/10 05:26:23;;;;;;;1.07;0.77;;;;;;;14.74;90.61;98551.44;4937724;28;20239;-56
2022/09/10 05:28:52;;;;;;;1.80;0.60;;;;;;;14.74;90.78;98558.50;4926504;28;20484;-56
2022/09/10 05:31:19;;;;;;;2.53;0.60;;;;;;;14.75;91.44;98552.25;4911691;28;20487;-56
2022/09/10 05:33:46;;;;;;;2.93;0.70;;;;;;;14.71;91.40;98545.75;4921909;28;20231;-56
2022/09/10 05:36:13;;;;;;;1.67;0.80;;;;;;;14.69;92.46;98555.56;4918399;28;20230;-56
2022/09/10 05:38:41;;;;;;;1.43;0.60;;;;;;;14.70;91.45;98557.25;4920645;28;20239;-56
2022/09/10 05:41:10;;;;;;;2.20;0.50;;;;;;;14.72;91.92;98558.69;4920693;28;20239;-55
2022/09/10 05:43:40;;;;;;;1.33;0.50;;;;;;;14.76;91.86;98553.91;4936236;28;20247;-53
2022/09/10 05:46:09;;;;;;;5.63;0.80;;;;;;;14.75;92.14;98560.16;4936423;28;20663;-55
2022/09/10 05:48:39;;;;;;;0.60;0.30;;;;;;;14.70;92.76;98560.66;4935684;28;20224;-54
2022/09/10 05:51:07;;;;;;;1.93;0.90;;;;;;;14.76;90.46;98562.59;4920795;28;24831;-55
2022/09/10 05:53:34;;;;;;;0.73;0.67;;;;;;;14.77;91.38;98568.66;4922600;28;20326;-55
2022/09/10 05:56:00;;;;;;;1.73;0.80;;;;;;;14.80;92.15;98564.84;4910615;28;20344;-55
2022/09/10 05:58:30;;;;;;;1.73;0.70;;;;;;;14.80;90.62;98568.31;4931487;28;20226;-55
2022/09/10 06:00:57;;;;;;;5.03;1.10;;;;;;;14.84;89.46;98574.00;4916100;28;20645;-55
2022/09/10 06:03:25;;;;;;;3.33;0.40;;;;;;;14.89;90.68;98564.56;4919682;28;20314;-55
2022/09/10 06:05:57;;;;;;;2.57;0.80;;;;;;;14.85;89.46;98571.19;4917335;28;20482;-55
2022/09/10 06:08:30;;;;;;;2.20;0.60;;;;;;;14.88;90.61;98583.97;4915173;28;20235;-55
2022/09/10 06:10:59;;;;;;;1.90;0.70;;;;;;;14.90;91.07;98587.22;4916716;28;20235;-54
2022/09/10 06:13:28;;;;;;;2.17;0.50;;;;;;;14.98;89.45;98585.50;4920335;28;20268;-55
2022/09/10 06:15:57;;;;;;;2.00;1.03;;;;;;;15.05;88.37;98596.94;4930318;28;20308;-55
2022/09/10 06:18:26;;;;;;;1.00;0.83;;;;;;;15.16;87.26;98593.88;4923617;28;20247;-56
2022/09/10 06:21:01;;;;;;;3.07;0.40;;;;;;;15.26;86.20;98590.16;4933596;28;20230;-55
2022/09/10 06:23:28;;;;;;;2.47;0.40;;;;;;;15.31;85.69;98590.41;4924520;28;20647;-55
2022/09/10 06:26:02;;;;;;;2.00;0.60;;;;;;;15.40;85.58;98585.88;4935694;28;20281;-56
2022/09/10 06:28:31;;;;;;;2.20;0.50;;;;;;;15.45;85.85;98599.28;4939464;28;20248;-56
2022/09/10 06:31:03;;;;;;;1.53;0.50;;;;;;;15.57;84.53;98600.47;4921071;28;20633;-56
2022/09/10 06:33:32;;;;;;;0.67;0.30;;;;;;;15.71;83.60;98603.25;4919021;28;20292;-55
2022/09/10 06:36:00;;;;;;;1.20;0.53;;;;;;;15.75;83.14;98602.72;4929422;28;20623;-52
2022/09/10 06:38:29;;;;;;;0.87;0.40;;;;;;;15.75;82.74;98602.72;4921492;28;20993;-56
2022/09/10 06:40:59;;;;;;;3.17;0.57;;;;;;;15.87;83.34;98607.53;4924886;28;20233;-55
2022/09/10 06:43:32;;;;;;;2.13;0.70;;;;;;;15.97;82.03;98602.75;4919432;28;20227;-54
2022/09/10 06:46:13;;;;;;;1.83;0.60;;;;;;;15.99;80.78;98603.38;4914110;28;20243;-55
2022/09/10 06:48:49;;;;;;;1.87;0.97;;;;;;;16.12;81.36;98607.16;4936856;28;20222;-55
2022/09/10 06:51:18;;;;;;;3.53;0.60;;;;;;;16.12;81.70;98609.78;4917786;28;20224;-54
2022/09/10 06:53:46;;;;;;;0.83;0.50;;;;;;;16.20;81.35;98618.41;4925391;28;21039;-55
2022/09/10 06:56:15;;;;;;;2.00;0.50;;;;;;;16.60;78.81;98625.03;4916506;28;20259;-55
2022/09/10 06:58:42;;;;;;;1.40;0.40;;;;;;;16.66;76.55;98619.81;4920294;28;20590;-56
2022/09/10 07:01:14;;;;;;;3.23;0.47;;;;;;;16.57;78.24;98615.69;4915016;28;20807;-56
2022/09/10 07:04:01;;;;;;;1.87;0.50;;;;;;;16.46;79.90;98637.28;4930547;28;20426;-55
2022/09/10 07:06:32;;;;;;;1.30;0.37;;;;;;;16.43;78.81;98624.47;4919686;28;20247;-56
2022/09/10 07:09:17;;;;;;;2.23;0.40;;;;;;;16.57;75.54;98620.13;4932755;28;20757;-54
2022/09/10 07:11:51;;;;;;;1.80;0.90;;;;;;;16.52;78.70;98624.16;4926825;28;20233;-55
2022/09/10 07:14:19;;;;;;;1.63;0.37;;;;;;;16.61;77.26;98631.91;4919927;28;20274;-54
2022/09/10 07:16:50;;;;;;;0.80;0.30;;;;;;;16.71;77.11;98626.34;4918160;28;20318;-55
2022/09/10 07:19:19;;;;;;;2.63;0.40;;;;;;;16.62;78.13;98637.00;4917909;28;20246;-55
2022/09/10 07:21:47;;;;;;;2.40;0.57;;;;;;;16.59;76.02;98628.66;4914778;28;20240;-55
2022/09/10 07:24:16;;;;;;;0.67;0.40;;;;;;;16.64;77.42;98637.63;4908316;28;20240;-57
2022/09/10 07:27:06;;;;;;;3.23;0.70;;;;;;;16.75;76.41;98638.13;4927686;28;20237;-56
2022/09/10 07:29:35;;;;;;;4.40;0.63;;;;;;;16.69;75.99;98650.25;4925356;28;20236;-55
2022/09/10 07:32:04;;;;;;;3.20;0.70;;;;;;;16.60;77.33;98646.94;4927184;28;20232;-55
2022/09/10 07:34:31;;;;;;;3.50;1.00;;;;;;;16.55;76.81;98657.22;4921716;28;20252;-53
2022/09/10 07:37:00;;;;;;;1.87;0.57;;;;;;;16.33;77.20;98657.22;4939725;28;20349;-54
2022/09/10 07:39:29;;;;;;;1.47;0.47;;;;;;;16.31;77.68;98656.59;4924355;28;20248;-55
2022/09/10 07:41:58;;;;;;;3.23;0.53;;;;;;;16.32;76.71;98658.22;4919054;28;20266;-56
2022/09/10 07:44:28;;;;;;;1.30;0.40;;;;;;;16.44;77.21;98657.72;4920192;28;20925;-55
2022/09/10 07:47:00;;;;;;;1.87;0.50;;;;;;;16.63;74.01;98659.72;4920128;28;20234;-55
2022/09/10 07:49:29;;;;;;;2.07;0.40;;;;;;;16.60;75.94;98646.94;4922493;28;20238;-55
2022/09/10 07:51:56;;;;;;;2.17;0.57;;;;;;;16.64;76.21;98652.63;4919921;28;20229;-55
2022/09/10 07:54:24;;;;;;;3.30;0.77;;;;;;;16.56;76.32;98650.94;4934747;28;20303;-55
2022/09/10 07:56:54;;;;;;;2.40;0.63;;;;;;;16.59;76.80;98661.09;4918575;28;21322;-54
2022/09/10 07:59:22;;;;;;;1.30;0.63;;;;;;;16.50;75.55;98662.25;4939351;28;20325;-54
2022/09/10 08:01:52;;;;;;;4.70;0.70;;;;;;;16.56;77.74;98661.50;4919640;28;20232;-54
2022/09/10 08:04:20;;;;;;;2.17;0.47;;;;;;;16.70;75.09;98656.34;4918821;28;20237;-55
2022/09/10 08:06:50;;;;;;;2.23;0.60;;;;;;;16.73;75.02;98664.66;4920120;28;20601;-56
2022/09/10 08:09:18;;;;;;;2.23;0.57;;;;;;;17.16;74.56;98668.28;4936889;28;20228;-54
2022/09/10 08:11:50;;;;;;;5.60;0.90;;;;;;;17.27;73.89;98665.91;4929734;28;20336;-54
2022/09/10 08:14:20;;;;;;;1.83;0.70;;;;;;;17.54;72.62;98665.22;4939045;28;20240;-56
2022/09/10 08:16:51;;;;;;;2.80;0.87;;;;;;;17.64;72.19;98667.53;4915830;28;20237;-55
2022/09/10 08:19:19;;;;;;;3.50;0.80;;;;;;;17.34;71.90;98675.69;4923718;28;20287;-55
2022/09/10 08:21:46;;;;;;;5.93;1.10;;;;;;;17.18;72.29;98680.25;4937706;28;20243;-56
2022/09/10 08:24:19;;;;;;;3.93;0.80;;;;;;;16.64;77.49;98685.06;4919971;28;20245;-55
2022/09/10 08:26:49;;;;;;;3.53;0.80;;;;;;;16.61;78.80;98682.00;4934172;28;20252;-53
2022/09/10 08:29:18;;;;;;;2.53;0.63;;;;;;;16.46;77.50;98690.75;4919762;28;20230;-53
2022/09/10 08:31:45;;;;;;;4.43;0.80;;;;;;;16.49;78.87;98685.13;4927018;28;20233;-54
2022/09/10 08:34:19;;;;;;;6.20;0.87;;;;;;;16.36;75.86;98677.09;4915189;28;20299;-55
2022/09/10 08:36:54;;;;;;;3.33;0.90;;;;;;;16.42;78.32;98680.81;4916706;28;20251;-54
2022/09/10 08:39:24;;;;;;;4.63;0.83;;;;;;;16.36;79.54;98691.09;4922259;28;20315;-55
2022/09/10 08:41:57;;;;;;;2.40;0.60;;;;;;;16.30;78.48;98678.66;4915850;28;20585;-55
2022/09/10 08:44:34;;;;;;;5.50;0.87;;;;;;;16.48;79.74;98685.31;4920654;28;20261;-55
2022/09/10 08:47:11;;;;;;;3.97;0.70;;;;;;;16.79;78.37;98689.47;4930474;28;20453;-56
2022/09/10 08:49:45;;;;;;;2.10;0.70;;;;;;;16.82;80.19;98683.81;4916034;28;20251;-55
2022/09/10 08:52:20;;;;;;;3.47;0.67;;;;;;;16.89;76.68;98686.50;4910853;28;20240;-54
2022/09/10 08:54:59;;;;;;;3.13;0.70;;;;;;;17.01;76.62;98685.00;4938575;28;20732;-55
2022/09/10 08:57:32;;;;;;;3.27;0.90;;;;;;;16.85;76.88;98691.34;4919913;28;20332;-54
2022/09/10 09:00:00;;;;;;;4.00;0.70;;;;;;;16.68;78.46;98686.34;4935769;28;20233;-55
2022/09/10 09:02:36;;;;;;;2.83;0.67;;;;;;;16.56;79.91;98687.84;4925025;28;20234;-55
2022/09/10 09:05:12;;;;;;;2.97;0.70;;;;;;;16.55;79.99;98706.44;4922416;28;20315;-55
2022/09/10 09:07:39;;;;;;;4.07;1.13;;;;;;;16.44;78.95;98697.25;4943199;28;20251;-54
2022/09/10 09:10:20;;;;;;;2.57;0.80;;;;;;;16.43;79.79;98701.69;4936500;28;20340;-56
2022/09/10 09:12:59;;;;;;;5.03;0.97;;;;;;;16.48;79.46;98711.66;4917508;28;20260;-61
2022/09/10 09:15:36;;;;;;;4.50;1.07;;;;;;;16.59;78.88;98713.81;4924508;28;20660;-53
2022/09/10 09:18:16;;;;;;;7.13;0.80;;;;;;;16.76;76.78;98714.38;4926185;28;20236;-55
2022/09/10 09:20:45;;;;;;;3.13;0.50;;;;;;;17.21;74.23;98713.34;4921325;28;20243;-54
2022/09/10 09:23:20;;;;;;;2.70;0.77;;;;;;;17.33;75.11;98719.72;4922215;28;20245;-56
2022/09/10 09:25:55;;;;;;;3.67;1.00;;;;;;;17.56;76.15;98716.81;4925086;28;20226;-55
2022/09/10 09:28:32;;;;;;;6.40;1.50;;;;;;;17.51;75.27;98715.75;4918157;28;20233;-55
2022/09/10 09:31:04;;;;;;;2.07;0.60;;;;;;;17.61;72.46;98710.94;4932355;28;20236;-55
2022/09/10 09:33:32;;;;;;;2.77;0.70;;;;;;;17.91;72.95;98712.53;4937296;28;20231;-56
2022/09/10 09:36:01;;;;;;;2.17;0.70;;;;;;;18.13;74.21;98721.19;4937838;28;20244;-55
2022/09/10 09:38:34;;;;;;;3.27;0.70;;;;;;;18.08;72.30;98713.03;4925732;28;20702;-53
2022/09/10 09:41:07;;;;;;;5.23;0.70;;;;;;;18.32;72.51;98724.91;4935391;28;20234;-53
2022/09/10 09:43:51;;;;;;;2.53;0.60;;;;;;;18.23;71.22;98711.06;4939434;28;20322;-55
2022/09/10 09:46:21;;;;;;;4.27;0.60;;;;;;;18.31;69.88;98717.97;4919700;28;20242;-55
2022/09/10 09:48:56;;;;;;;1.47;0.47;;;;;;;18.71;67.70;98714.59;4933551;28;20245;-56
2022/09/10 09:51:26;;;;;;;1.93;0.60;;;;;;;19.05;68.82;98710.19;4925366;28;20258;-55
2022/09/10 09:53:58;;;;;;;2.93;0.60;;;;;;;19.02;66.91;98708.78;4938052;28;20277;-55
2022/09/10 09:56:31;;;;;;;3.43;0.60;;;;;;;19.51;64.57;98713.78;4934157;28;20293;-54
2022/09/10 09:59:07;;;;;;;4.00;0.80;;;;;;;18.98;66.07;98710.19;4935901;28;20228;-56
2022/09/10 10:01:39;;;;;;;3.20;0.70;;;;;;;18.79;66.22;98709.13;4937773;28;20322;-54
2022/09/10 10:04:21;;;;;;;3.23;0.70;;;;;;;18.51;67.05;98710.13;4934620;28;20230;-55
2022/09/10 10:06:55;;;;;;;3.07;0.77;;;;;;;18.68;68.13;98718.47;4933184;28;20239;-56
2022/09/10 10:09:24;;;;;;;1.87;0.60;;;;;;;18.86;65.99;98703.84;4937059;28;20234;-54
2022/09/10 10:11:55;;;;;;;0.80;0.57;;;;;;;18.93;66.62;98698.56;4936399;28;20317;-55
2022/09/10 10:14:25;;;;;;;9.73;1.87;;;;;;;18.93;68.46;98701.19;4935856;28;20244;-55
2022/09/10 10:16:54;;;;;;;2.70;0.67;;;;;;;19.22;64.17;98699.19;4929192;28;20474;-55
2022/09/10 10:19:31;;;;;;;4.40;0.87;;;;;;;19.22;63.53;98691.25;4939726;28;20249;-55
2022/09/10 10:22:20;;;;;;;2.53;0.70;;;;;;;19.11;64.93;98688.22;4936251;28;20783;-53
2022/09/10 10:24:49;;;;;;;4.40;0.90;;;;;;;19.25;65.00;98691.63;4937203;28;20885;-53
2022/09/10 10:27:20;;;;;;;4.63;0.90;;;;;;;19.22;63.60;98691.25;4934082;28;20288;-56
2022/09/10 10:29:59;;;;;;;3.67;1.47;;;;;;;19.50;63.28;98691.00;4939994;28;20241;-56
2022/09/10 10:32:33;;;;;;;3.93;0.60;;;;;;;19.39;63.33;98694.25;4932354;28;20238;-55
2022/09/10 10:35:27;;;;;;;3.03;1.00;;;;;;;19.66;65.75;98696.84;4928225;28;20234;-53
2022/09/10 10:38:16;;;;;;;2.97;0.83;;;;;;;19.80;62.59;98694.97;4937832;28;20222;-56
2022/09/10 10:40:47;;;;;;;2.47;0.70;;;;;;;19.69;63.31;98686.66;4922052;28;20671;-55
2022/09/10 10:43:25;;;;;;;1.73;0.60;;;;;;;19.81;63.90;98692.13;4939444;28;20248;-55
2022/09/10 10:46:00;;;;;;;5.70;0.87;;;;;;;19.57;63.45;98683.84;4936336;28;20221;-55
2022/09/10 10:48:42;;;;;;;7.20;0.90;;;;;;;19.85;63.13;98679.25;4925455;28;20598;-55
2022/09/10 10:51:16;;;;;;;3.07;0.70;;;;;;;19.69;65.33;98678.69;4931994;28;20249;-56
2022/09/10 10:53:55;;;;;;;2.80;0.70;;;;;;;20.13;64.16;98668.38;4937431;28;21111;-57
2022/09/10 10:56:30;;;;;;;2.30;0.70;;;;;;;20.53;64.01;98672.63;4932740;28;20241;-56
2022/09/10 10:59:22;;;;;;;2.40;0.67;;;;;;;20.88;59.73;98668.72;4930164;28;20254;-56
2022/09/10 11:01:55;;;;;;;5.23;0.90;;;;;;;20.61;60.98;98671.53;4930100;28;21223;-57
2022/09/10 11:04:29;;;;;;;3.70;0.73;;;;;;;20.05;59.38;98658.03;4921621;28;20252;-54
2022/09/10 11:07:00;;;;;;;3.73;0.60;;;;;;;19.60;62.20;98670.19;4932560;28;20239;-57
2022/09/10 11:09:31;;;;;;;5.50;0.60;;;;;;;19.80;63.26;98671.97;4935988;28;20249;-57
2022/09/10 11:12:04;;;;;;;2.67;0.77;;;;;;;20.13;60.76;98672.84;4929641;28;20698;-57
2022/09/10 11:14:40;;;;;;;4.50;0.80;;;;;;;19.72;62.61;98666.91;4919920;28;20241;-55
2022/09/10 11:17:15;;;;;;;2.70;0.60;;;;;;;20.16;62.81;98675.88;4936307;28;20274;-55
2022/09/10 11:19:51;;;;;;;4.33;0.70;;;;;;;20.50;60.04;98665.88;4935769;28;20537;-55
2022/09/10 11:22:22;;;;;;;4.47;0.70;;;;;;;20.62;60.92;98657.25;4929539;28;20380;-55
2022/09/10 11:24:54;;;;;;;2.90;0.80;;;;;;;20.76;59.94;98661.44;4931745;28;20628;-56
2022/09/10 11:27:27;;;;;;;4.23;0.73;;;;;;;21.09;57.78;98667.50;4940134;28;20859;-58
2022/09/10 11:30:02;;;;;;;2.53;0.80;;;;;;;20.85;59.67;98664.63;4931902;28;20236;-56
2022/09/10 11:32:34;;;;;;;3.20;0.70;;;;;;;20.90;57.73;98682.56;4937589;28;20243;-56
2022/09/10 11:35:11;;;;;;;3.10;0.90;;;;;;;20.41;58.34;98664.53;4934137;28;20236;-56
2022/09/10 11:37:54;;;;;;;1.83;0.90;;;;;;;20.43;60.26;98659.81;4938552;28;20244;-56
2022/09/10 11:40:27;;;;;;;2.03;0.60;;;;;;;20.80;57.11;98651.22;4934374;28;20664;-57
2022/09/10 11:42:58;;;;;;;3.03;0.67;;;;;;;20.38;56.45;98646.41;4934460;28;20328;-57
2022/09/10 11:45:36;;;;;;;2.47;0.70;;;;;;;20.16;58.90;98651.22;4938324;28;20284;-62
2022/09/10 11:48:13;;;;;;;4.33;0.87;;;;;;;20.42;59.03;98650.25;4930984;28;20228;-57
2022/09/10 11:50:46;;;;;;;4.17;0.70;;;;;;;20.54;58.35;98657.50;4937910;28;20247;-55
2022/09/10 11:53:16;;;;;;;2.30;0.50;;;;;;;20.41;55.82;98653.91;4931622;28;20255;-60
2022/09/10 11:56:06;;;;;;;4.03;0.87;;;;;;;19.93;56.88;98654.41;4905408;28;20228;-57
2022/09/10 11:58:45;;;;;;;3.37;0.60;;;;;;;20.11;57.63;98659.00;4925366;28;20224;-57
2022/09/10 12:01:21;;;;;;;3.60;1.10;;;;;;;19.93;58.47;98654.41;4925216;28;20350;-57